createdAt,value
2022-09-22T00:01:18.945Z,7.85
2022-09-22T00:03:53.690Z,7.35
2022-09-22T00:06:23.926Z,9.57
2022-09-22T00:08:54.414Z,7.12
2022-09-22T00:11:28.924Z,8.00
2022-09-22T00:14:02.531Z,8.75
2022-09-22T00:16:33.526Z,7.78
2022-09-22T00:19:01.403Z,8.10
2022-09-22T00:21:30.904Z,7.00
2022-09-22T00:24:02.750Z,8.30
2022-09-22T00:26:31.325Z,7.18
2022-09-22T00:28:59.595Z,6.90
2022-09-22T00:31:27.632Z,7.40
2022-09-22T00:33:56.049Z,7.12
2022-09-22T00:36:25.836Z,7.87
2022-09-22T00:38:56.850Z,6.80
2022-09-22T00:41:31.032Z,7.70
2022-09-22T00:44:26.520Z,7.23
2022-09-22T00:49:29.822Z,7.45
2022-09-22T00:51:57.611Z,10.63
2022-09-22T00:54:25.157Z,9.98
2022-09-22T00:57:05.223Z,7.65
2022-09-22T00:59:33.125Z,8.63
2022-09-22T01:02:00.542Z,8.05
2022-09-22T01:04:29.132Z,7.62
2022-09-22T01:06:58.006Z,7.75
2022-09-22T01:09:25.996Z,7.82
2022-09-22T01:11:53.505Z,8.00
2022-09-22T01:14:38.111Z,10.63
2022-09-22T01:17:44.700Z,7.95
2022-09-22T01:20:27.271Z,7.50
2022-09-22T01:23:32.023Z,8.30
2022-09-22T01:26:27.802Z,8.50
2022-09-22T01:29:23.510Z,8.77
2022-09-22T01:32:01.370Z,8.93
2022-09-22T01:34:40.524Z,9.18
2022-09-22T01:37:12.318Z,7.60
2022-09-22T01:39:46.163Z,7.03
2022-09-22T01:42:35.683Z,9.05
2022-09-22T01:45:12.148Z,9.05
2022-09-22T01:47:47.530Z,9.77
2022-09-22T01:50:28.232Z,8.82
2022-09-22T01:52:59.486Z,8.85
2022-09-22T01:55:38.666Z,8.90
2022-09-22T01:58:13.702Z,8.77
2022-09-22T02:00:44.676Z,9.30
2022-09-22T02:03:25.772Z,10.05
2022-09-22T02:06:00.680Z,9.55
2022-09-22T02:08:33.514Z,11.27
2022-09-22T02:11:04.291Z,11.60
2022-09-22T02:13:31.911Z,8.77
2022-09-22T02:16:02.356Z,8.93
2022-09-22T02:18:39.707Z,10.13
2022-09-22T02:21:07.348Z,8.98
2022-09-22T02:23:35.923Z,9.18
2022-09-22T02:26:05.073Z,11.05
2022-09-22T02:28:33.758Z,9.77
2022-09-22T02:31:19.495Z,8.27
2022-09-22T02:33:48.795Z,8.60
2022-09-22T02:36:43.553Z,9.35
2022-09-22T02:39:19.511Z,8.82
2022-09-22T02:42:18.018Z,7.45
2022-09-22T02:44:52.205Z,8.55
2022-09-22T02:47:25.547Z,8.48
2022-09-22T02:49:55.206Z,8.30
2022-09-22T02:52:24.282Z,8.10
2022-09-22T02:54:54.028Z,9.65
2022-09-22T02:57:21.842Z,7.30
2022-09-22T02:59:49.703Z,8.45
2022-09-22T03:02:17.167Z,9.70
2022-09-22T03:04:44.802Z,8.20
2022-09-22T03:07:12.219Z,8.38
2022-09-22T03:09:39.836Z,8.48
2022-09-22T03:12:07.586Z,9.50
2022-09-22T03:14:35.163Z,9.95
2022-09-22T03:17:02.523Z,9.90
2022-09-22T03:19:30.304Z,9.73
2022-09-22T03:21:57.737Z,9.02
2022-09-22T03:24:25.190Z,9.55
2022-09-22T03:26:52.869Z,10.00
2022-09-22T03:29:20.236Z,9.18
2022-09-22T03:31:47.795Z,10.93
2022-09-22T03:34:15.590Z,7.60
2022-09-22T03:36:43.091Z,10.18
2022-09-22T03:39:10.445Z,9.50
2022-09-22T03:41:38.136Z,10.65
2022-09-22T03:44:05.925Z,11.52
2022-09-22T03:46:34.580Z,17.33
2022-09-22T03:49:03.356Z,22.98
2022-09-22T03:51:33.098Z,13.68
2022-09-22T03:54:00.784Z,12.23
2022-09-22T03:56:28.452Z,9.80
2022-09-22T03:58:56.164Z,10.88
2022-09-22T04:01:23.680Z,10.50
2022-09-22T04:03:51.331Z,9.98
2022-09-22T04:06:19.709Z,9.02
2022-09-22T04:08:47.108Z,9.20
2022-09-22T04:11:14.750Z,10.60
2022-09-22T04:13:46.193Z,9.60
2022-09-22T04:16:14.202Z,8.68
2022-09-22T04:18:41.974Z,8.20
2022-09-22T04:21:09.454Z,10.63
2022-09-22T04:23:36.891Z,10.65
2022-09-22T04:26:05.112Z,10.52
2022-09-22T04:28:32.722Z,8.85
2022-09-22T04:31:00.410Z,8.52
2022-09-22T04:33:28.256Z,10.32
2022-09-22T04:35:55.731Z,9.10
2022-09-22T04:38:23.078Z,12.27
2022-09-22T04:40:52.880Z,12.05
2022-09-22T04:43:20.372Z,12.48
2022-09-22T04:45:48.985Z,10.93
2022-09-22T04:48:17.128Z,11.63
2022-09-22T04:50:48.137Z,12.75
2022-09-22T04:53:15.943Z,12.40
2022-09-22T04:55:43.699Z,13.50
2022-09-22T04:58:11.469Z,11.68
2022-09-22T05:00:39.154Z,10.45
2022-09-22T05:03:11.036Z,10.85
2022-09-22T05:05:38.704Z,10.30
2022-09-22T05:08:06.974Z,13.75
2022-09-22T05:10:35.825Z,14.57
2022-09-22T05:13:03.882Z,11.98
2022-09-22T05:15:33.180Z,10.40
2022-09-22T05:18:00.908Z,10.23
2022-09-22T05:20:28.453Z,10.38
2022-09-22T05:22:55.957Z,8.88
2022-09-22T05:25:23.701Z,11.98
2022-09-22T05:27:53.330Z,11.48
2022-09-22T05:30:25.546Z,11.82
2022-09-22T05:32:53.398Z,14.18
2022-09-22T05:35:23.263Z,10.77
2022-09-22T05:37:52.029Z,46.13
2022-09-22T05:40:20.788Z,53.70
2022-09-22T05:42:53.866Z,37.17
2022-09-22T05:45:22.075Z,18.95
2022-09-22T05:47:49.750Z,16.12
2022-09-22T05:50:18.483Z,13.93
2022-09-22T05:52:46.169Z,10.77
2022-09-22T05:55:13.783Z,15.82
2022-09-22T05:57:41.721Z,12.35
2022-09-22T06:00:10.697Z,12.77
2022-09-22T06:02:39.621Z,12.05
2022-09-22T06:05:07.571Z,13.65
2022-09-22T06:07:34.976Z,14.20
2022-09-22T06:10:02.492Z,12.20
2022-09-22T06:12:30.214Z,12.23
2022-09-22T06:14:57.683Z,12.13
2022-09-22T06:17:25.050Z,10.73
2022-09-22T06:19:52.750Z,11.45
2022-09-22T06:22:20.453Z,11.77
2022-09-22T06:24:48.818Z,9.70
2022-09-22T06:27:16.680Z,13.55
2022-09-22T06:29:44.143Z,10.82
2022-09-22T06:32:11.513Z,12.18
2022-09-22T06:34:39.238Z,14.23
2022-09-22T06:37:09.429Z,11.02
2022-09-22T06:39:37.844Z,10.32
2022-09-22T06:42:06.225Z,11.55
2022-09-22T06:44:33.949Z,10.18
2022-09-22T06:47:05.398Z,10.90
2022-09-22T06:49:33.204Z,10.70
2022-09-22T06:52:00.694Z,10.25
2022-09-22T06:54:28.136Z,10.05
2022-09-22T06:56:55.817Z,10.65
2022-09-22T06:59:23.326Z,8.18
2022-09-22T07:01:50.825Z,10.55
2022-09-22T07:04:20.173Z,9.25
2022-09-22T07:06:50.407Z,8.73
2022-09-22T07:09:18.066Z,7.87
2022-09-22T07:11:47.408Z,10.05
2022-09-22T07:14:15.128Z,9.00
2022-09-22T07:16:44.423Z,7.25
2022-09-22T07:19:12.038Z,7.80
2022-09-22T07:21:40.505Z,8.93
2022-09-22T07:24:08.833Z,6.55
2022-09-22T07:26:39.210Z,7.62
2022-09-22T07:29:11.615Z,6.53
2022-09-22T07:31:40.508Z,6.05
2022-09-22T07:34:09.633Z,6.90
2022-09-22T07:36:37.982Z,7.10
2022-09-22T07:39:07.957Z,6.47
2022-09-22T07:41:41.811Z,7.75
2022-09-22T07:44:29.952Z,6.43
2022-09-22T07:46:57.760Z,6.05
2022-09-22T07:49:25.656Z,6.45
2022-09-22T07:51:55.066Z,7.65
2022-09-22T07:54:23.577Z,7.95
2022-09-22T07:56:58.381Z,6.15
2022-09-22T07:59:26.570Z,7.87
2022-09-22T08:01:54.391Z,7.03
2022-09-22T08:04:23.734Z,7.50
2022-09-22T08:06:54.404Z,7.70
2022-09-22T08:09:22.702Z,7.43
2022-09-22T08:11:50.339Z,6.62
2022-09-22T08:14:18.639Z,8.05
2022-09-22T08:16:46.515Z,6.90
2022-09-22T08:19:14.589Z,7.57
2022-09-22T08:21:49.149Z,11.85
2022-09-22T08:24:22.357Z,6.90
2022-09-22T08:26:52.559Z,7.37
2022-09-22T08:29:20.682Z,6.90
2022-09-22T08:31:49.535Z,7.75
2022-09-22T08:34:18.194Z,7.53
2022-09-22T08:36:48.730Z,7.03
2022-09-22T08:39:17.755Z,7.18
2022-09-22T08:41:56.319Z,7.10
2022-09-22T08:44:49.497Z,6.53
2022-09-22T08:47:39.528Z,6.95
2022-09-22T08:50:37.997Z,15.70
2022-09-22T08:53:08.981Z,6.43
2022-09-22T08:55:37.850Z,10.98
2022-09-22T08:58:13.995Z,5.72
2022-09-22T09:00:46.496Z,4.37
2022-09-22T09:03:24.010Z,5.95
2022-09-22T09:05:51.616Z,4.00
2022-09-22T09:08:22.375Z,4.53
2022-09-22T09:10:59.431Z,4.10
2022-09-22T09:13:54.199Z,4.57
2022-09-22T09:16:38.814Z,5.97
2022-09-22T09:19:31.911Z,5.72
2022-09-22T09:22:04.517Z,3.95
2022-09-22T09:27:26.509Z,3.12
2022-09-22T09:30:03.165Z,4.40
2022-09-22T09:32:34.533Z,4.30
2022-09-22T09:35:02.813Z,9.68
2022-09-22T09:37:30.667Z,5.20
2022-09-22T09:40:01.783Z,4.93
2022-09-22T09:42:33.180Z,4.37
2022-09-22T09:45:02.853Z,82.07
2022-09-22T09:47:47.712Z,5.00
2022-09-22T09:50:15.831Z,2.83
2022-09-22T09:52:44.954Z,6.32
2022-09-22T09:55:27.039Z,2.85
2022-09-22T09:58:11.971Z,4.10
2022-09-22T10:00:57.121Z,3.43
2022-09-22T10:03:27.938Z,3.97
2022-09-22T10:06:00.214Z,3.58
2022-09-22T10:08:28.632Z,3.25
2022-09-22T10:11:01.978Z,4.32
2022-09-22T10:13:35.772Z,2.92
2022-09-22T10:16:24.264Z,4.60
2022-09-22T10:19:21.106Z,14.48
2022-09-22T10:21:49.020Z,4.95
2022-09-22T10:24:29.038Z,3.55
2022-09-22T10:26:57.311Z,4.32
2022-09-22T10:29:25.828Z,3.62
2022-09-22T10:31:59.718Z,6.62
2022-09-22T10:34:34.869Z,3.78
2022-09-22T10:37:07.389Z,3.78
2022-09-22T10:39:43.422Z,4.70
2022-09-22T10:42:37.986Z,4.85
2022-09-22T10:45:07.230Z,3.22
2022-09-22T10:47:42.761Z,2.92
2022-09-22T10:50:31.944Z,3.58
2022-09-22T10:53:09.846Z,2.95
2022-09-22T10:55:56.092Z,2.62
2022-09-22T10:58:31.014Z,2.83
2022-09-22T11:01:13.068Z,2.83
2022-09-22T11:03:47.426Z,3.67
2022-09-22T11:06:42.943Z,3.55
2022-09-22T11:09:56.906Z,2.65
2022-09-22T11:12:51.299Z,3.05
2022-09-22T11:15:27.738Z,3.15
2022-09-22T11:18:04.532Z,3.22
2022-09-22T11:21:27.462Z,4.55
2022-09-22T11:24:14.770Z,3.97
2022-09-22T11:26:54.462Z,3.28
2022-09-22T11:29:49.123Z,4.40
2022-09-22T11:32:41.935Z,3.22
2022-09-22T11:35:25.247Z,2.55
2022-09-22T11:38:04.793Z,4.20
2022-09-22T11:43:53.473Z,2.83
2022-09-22T11:46:35.751Z,2.90
2022-09-22T11:49:22.018Z,2.58
2022-09-22T11:52:01.992Z,3.58
2022-09-22T11:54:54.364Z,6.72
2022-09-22T11:57:24.923Z,3.08
2022-09-22T12:00:18.892Z,3.92
2022-09-22T12:02:55.367Z,2.12
2022-09-22T12:05:42.168Z,3.47
2022-09-22T12:08:24.646Z,5.20
2022-09-22T12:10:52.837Z,6.78
2022-09-22T12:13:28.529Z,2.83
2022-09-22T12:16:31.957Z,4.43
2022-09-22T12:19:05.246Z,3.42
2022-09-22T12:21:46.360Z,4.40
2022-09-22T12:24:14.115Z,6.50
2022-09-22T12:26:46.315Z,4.95
2022-09-22T12:29:14.342Z,4.35
2022-09-22T12:31:50.171Z,4.72
2022-09-22T12:34:20.745Z,4.68
2022-09-22T12:36:50.610Z,3.00
2022-09-22T12:39:27.141Z,14.32
2022-09-22T12:42:00.331Z,5.95
2022-09-22T12:44:46.914Z,2.80
2022-09-22T12:47:21.443Z,4.87
2022-09-22T12:49:56.569Z,3.78
2022-09-22T12:52:42.357Z,10.98
2022-09-22T12:55:22.852Z,3.08
2022-09-22T12:58:10.068Z,4.07
2022-09-22T13:00:40.990Z,4.62
2022-09-22T13:03:26.682Z,4.32
2022-09-22T13:05:55.739Z,4.32
2022-09-22T13:08:25.801Z,6.80
2022-09-22T13:10:57.847Z,4.30
2022-09-22T13:13:36.749Z,4.07
2022-09-22T13:16:14.518Z,4.80
2022-09-22T13:18:43.575Z,4.30
2022-09-22T13:21:13.753Z,4.62
2022-09-22T13:23:59.072Z,3.83
2022-09-22T13:26:40.840Z,3.87
2022-09-22T13:29:21.271Z,3.85
2022-09-22T13:31:54.401Z,6.28
2022-09-22T13:34:32.297Z,4.97
2022-09-22T13:37:01.033Z,3.72
2022-09-22T13:39:34.540Z,2.87
2022-09-22T13:42:08.971Z,4.57
2022-09-22T13:44:39.930Z,6.55
2022-09-22T13:47:13.711Z,4.00
2022-09-22T13:49:43.943Z,4.37
2022-09-22T13:52:19.352Z,4.93
2022-09-22T13:54:50.306Z,3.87
2022-09-22T13:57:24.415Z,4.45
2022-09-22T13:59:52.597Z,5.37
2022-09-22T14:02:27.001Z,4.53
2022-09-22T14:05:02.099Z,5.28
2022-09-22T14:07:30.803Z,4.70
2022-09-22T14:09:59.571Z,4.50
2022-09-22T14:12:30.302Z,3.92
2022-09-22T14:15:32.796Z,4.68
2022-09-22T14:18:01.653Z,5.95
2022-09-22T14:20:29.395Z,5.55
2022-09-22T14:22:56.899Z,4.43
2022-09-22T14:25:24.305Z,5.45
2022-09-22T14:27:59.698Z,10.48
2022-09-22T14:30:31.140Z,7.35
2022-09-22T14:33:02.151Z,14.00
2022-09-22T14:35:32.070Z,5.28
2022-09-22T14:38:13.505Z,4.53
2022-09-22T14:40:54.789Z,5.40
2022-09-22T14:43:22.604Z,4.82
2022-09-22T14:46:38.793Z,5.72
2022-09-22T14:49:34.515Z,5.25
2022-09-22T14:54:31.020Z,4.87
2022-09-22T14:57:07.462Z,7.97
2022-09-22T14:59:56.492Z,4.50
2022-09-22T15:02:33.405Z,5.22
2022-09-22T15:05:04.973Z,4.95
2022-09-22T15:07:37.058Z,4.80
2022-09-22T15:10:19.879Z,7.03
2022-09-22T15:12:49.805Z,4.43
2022-09-22T15:15:31.867Z,6.43
2022-09-22T15:18:18.862Z,4.90
2022-09-22T15:20:50.050Z,10.48
2022-09-22T15:23:27.311Z,5.90
2022-09-22T15:25:55.759Z,6.12
2022-09-22T15:28:24.669Z,5.28
2022-09-22T15:30:53.028Z,5.45
2022-09-22T15:33:21.632Z,6.10
2022-09-22T15:36:13.004Z,4.78
2022-09-22T15:38:41.509Z,8.13
2022-09-22T15:41:14.212Z,4.45
2022-09-22T15:43:42.835Z,6.12
2022-09-22T15:46:34.118Z,7.70
2022-09-22T15:49:24.989Z,6.90
2022-09-22T15:51:52.970Z,7.47
2022-09-22T15:54:22.368Z,7.43
2022-09-22T15:56:52.616Z,9.88
2022-09-22T15:59:28.005Z,6.85
2022-09-22T16:01:57.128Z,7.62
2022-09-22T16:04:31.451Z,10.32
2022-09-22T16:07:02.394Z,10.00
2022-09-22T16:09:30.586Z,5.93
2022-09-22T16:11:57.966Z,8.23
2022-09-22T16:14:25.473Z,7.95
2022-09-22T16:16:53.148Z,9.40
2022-09-22T16:19:20.557Z,23.35
2022-09-22T16:21:52.832Z,98.00
2022-09-22T16:24:22.680Z,73.37
2022-09-22T16:26:51.816Z,100.22
2022-09-22T16:29:19.684Z,77.30
2022-09-22T16:31:47.100Z,40.40
2022-09-22T16:34:14.567Z,45.25
2022-09-22T16:36:43.204Z,52.65
2022-09-22T16:39:10.642Z,24.30
2022-09-22T16:41:44.139Z,24.67
2022-09-22T16:44:11.972Z,15.82
2022-09-22T16:46:39.436Z,10.30
2022-09-22T16:49:12.782Z,12.15
2022-09-22T16:51:42.429Z,16.48
2022-09-22T16:54:13.910Z,22.08
2022-09-22T16:56:45.356Z,32.45
2022-09-22T16:59:16.251Z,26.73
2022-09-22T17:01:44.153Z,26.98
2022-09-22T17:04:13.103Z,24.25
2022-09-22T17:06:41.707Z,26.17
2022-09-22T17:09:10.409Z,64.80
2022-09-22T17:11:40.222Z,80.82
2022-09-22T17:14:12.606Z,80.18
2022-09-22T17:16:45.658Z,59.20
2022-09-22T17:19:19.417Z,53.45
2022-09-22T17:21:48.651Z,48.45
2022-09-22T17:24:16.153Z,40.97
2022-09-22T17:26:54.896Z,39.67
2022-09-22T17:29:25.459Z,42.13
2022-09-22T17:31:57.382Z,33.42
2022-09-22T17:34:29.205Z,38.53
2022-09-22T17:36:57.298Z,33.95
2022-09-22T17:39:26.385Z,34.15
2022-09-22T17:41:55.109Z,26.17
2022-09-22T17:44:23.170Z,51.97
2022-09-22T17:47:11.298Z,44.70
2022-09-22T17:49:58.362Z,40.20
2022-09-22T17:52:31.818Z,43.08
2022-09-22T17:55:08.067Z,43.33
2022-09-22T17:57:38.435Z,36.40
2022-09-22T18:00:08.729Z,35.53
2022-09-22T18:02:37.005Z,29.10
2022-09-22T18:05:09.985Z,28.77
2022-09-22T18:07:40.165Z,30.37
2022-09-22T18:10:09.768Z,36.30
2022-09-22T18:12:37.226Z,34.50
2022-09-22T18:15:05.559Z,46.97
2022-09-22T18:17:43.920Z,66.65
2022-09-22T18:20:14.112Z,75.40
2022-09-22T18:22:48.378Z,60.40
2022-09-22T18:25:19.376Z,53.13
2022-09-22T18:27:48.491Z,47.20
2022-09-22T18:30:19.117Z,44.63
2022-09-22T18:32:47.647Z,40.03
2022-09-22T18:35:15.231Z,22.35
2022-09-22T18:37:43.367Z,20.17
2022-09-22T18:40:12.550Z,12.93
2022-09-22T18:42:43.714Z,17.25
2022-09-22T18:45:12.715Z,15.93
2022-09-22T18:47:42.032Z,15.48
2022-09-22T18:50:11.001Z,16.23
2022-09-22T18:52:42.751Z,18.02
2022-09-22T18:55:11.651Z,17.15
2022-09-22T18:57:39.366Z,15.95
2022-09-22T19:00:07.491Z,18.27
2022-09-22T19:02:35.228Z,19.17
2022-09-22T19:05:03.100Z,14.75
2022-09-22T19:07:43.872Z,14.90
2022-09-22T19:10:14.838Z,14.23
2022-09-22T19:12:42.702Z,18.20
2022-09-22T19:15:16.756Z,12.20
2022-09-22T19:17:47.016Z,11.75
2022-09-22T19:20:21.255Z,15.27
2022-09-22T19:22:50.360Z,15.55
2022-09-22T19:25:18.819Z,15.75
2022-09-22T19:27:46.272Z,15.32
2022-09-22T19:30:14.073Z,13.45
2022-09-22T19:32:41.462Z,14.80
2022-09-22T19:35:09.790Z,14.52
2022-09-22T19:37:37.471Z,15.30
2022-09-22T19:40:06.715Z,14.52
2022-09-22T19:42:40.089Z,11.02
2022-09-22T19:45:09.034Z,12.32
2022-09-22T19:47:37.025Z,14.82
2022-09-22T19:50:08.141Z,16.45
2022-09-22T19:52:36.645Z,15.07
2022-09-22T19:55:05.857Z,14.02
2022-09-22T19:57:33.231Z,12.02
2022-09-22T20:00:01.027Z,14.15
2022-09-22T20:02:28.440Z,15.52
2022-09-22T20:04:56.110Z,16.85
2022-09-22T20:07:27.762Z,17.12
2022-09-22T20:09:56.477Z,16.65
2022-09-22T20:12:24.403Z,16.65
2022-09-22T20:14:51.811Z,14.15
2022-09-22T20:17:19.173Z,12.50
2022-09-22T20:19:46.849Z,13.52
2022-09-22T20:22:20.286Z,15.80
2022-09-22T20:24:54.025Z,14.25
2022-09-22T20:27:26.429Z,13.65
2022-09-22T20:29:57.331Z,12.90
2022-09-22T20:32:26.246Z,12.88
2022-09-22T20:34:55.419Z,10.90
2022-09-22T20:37:23.170Z,12.10
2022-09-22T20:39:50.893Z,13.98
2022-09-22T20:42:18.895Z,47.75
2022-09-22T20:44:47.037Z,11.15
2022-09-22T20:47:18.731Z,11.95
2022-09-22T20:49:50.860Z,12.48
2022-09-22T20:52:20.237Z,11.73
2022-09-22T20:54:48.823Z,11.93
2022-09-22T20:57:16.826Z,11.63
2022-09-22T20:59:45.851Z,9.38
2022-09-22T21:02:14.819Z,9.77
2022-09-22T21:04:42.366Z,12.05
2022-09-22T21:07:11.452Z,12.27
2022-09-22T21:09:57.909Z,15.27
2022-09-22T21:12:30.756Z,14.32
2022-09-22T21:14:59.089Z,12.88
2022-09-22T21:17:27.842Z,13.80
2022-09-22T21:19:57.666Z,12.48
2022-09-22T21:22:28.071Z,12.73
2022-09-22T21:24:56.415Z,13.93
2022-09-22T21:27:25.124Z,12.50
2022-09-22T21:29:54.022Z,16.08
2022-09-22T21:32:21.358Z,18.42
2022-09-22T21:34:48.992Z,18.70
2022-09-22T21:37:16.636Z,15.55
2022-09-22T21:39:43.955Z,10.45
2022-09-22T21:42:11.279Z,12.98
2022-09-22T21:44:39.244Z,12.05
2022-09-22T21:47:06.839Z,10.73
2022-09-22T21:49:34.179Z,13.57
2022-09-22T21:52:01.838Z,11.40
2022-09-22T21:54:31.157Z,12.65
2022-09-22T21:56:58.500Z,11.05
2022-09-22T21:59:26.226Z,14.63
2022-09-22T22:01:53.632Z,12.30
2022-09-22T22:04:21.859Z,12.05
2022-09-22T22:06:49.291Z,11.50
2022-09-22T22:09:22.056Z,13.35
2022-09-22T22:11:55.595Z,9.15
2022-09-22T22:14:26.431Z,10.88
2022-09-22T22:16:55.099Z,10.85
2022-09-22T22:19:25.644Z,9.52
2022-09-22T22:21:53.913Z,7.95
2022-09-22T22:24:28.807Z,9.40
2022-09-22T22:29:34.696Z,9.52
2022-09-22T22:32:04.144Z,14.43
2022-09-22T22:34:31.727Z,11.32
2022-09-22T22:36:59.532Z,10.88
2022-09-22T22:39:26.874Z,9.55
2022-09-22T22:41:57.303Z,9.65
2022-09-22T22:44:24.642Z,10.00
2022-09-22T22:46:51.965Z,12.00
2022-09-22T22:49:19.818Z,12.07
2022-09-22T22:51:49.151Z,10.13
2022-09-22T22:54:16.688Z,11.48
2022-09-22T22:56:46.829Z,12.70
2022-09-22T22:59:18.164Z,11.88
2022-09-22T23:01:45.837Z,11.93
2022-09-22T23:04:13.293Z,11.50
2022-09-22T23:06:44.450Z,12.40
2022-09-22T23:09:15.024Z,11.48
2022-09-22T23:11:43.269Z,10.20
2022-09-22T23:14:12.017Z,9.63
2022-09-22T23:16:44.933Z,13.95
2022-09-22T23:19:14.295Z,11.93
2022-09-22T23:21:42.089Z,9.77
2022-09-22T23:24:09.440Z,13.32
2022-09-22T23:26:37.613Z,10.88
2022-09-22T23:29:06.071Z,9.65
2022-09-22T23:31:33.524Z,9.90
2022-09-22T23:34:01.203Z,8.68
2022-09-22T23:36:29.319Z,10.93
2022-09-22T23:39:03.475Z,11.63
2022-09-22T23:41:33.140Z,15.00
2022-09-22T23:44:00.724Z,10.90
2022-09-22T23:46:28.140Z,10.63
2022-09-22T23:48:55.934Z,10.55
2022-09-22T23:51:24.118Z,11.43
2022-09-22T23:53:51.831Z,13.52
2022-09-22T23:56:19.711Z,11.07
2022-09-22T23:58:47.605Z,11.82
